sensor_id;sensor_type;location;lat;lon;timestamp;pressure;altitude;pressure_sealevel;temperature;humidity
28935;BME280;16044;52.726;-2.108;2022-12-10T00:01:31;99870.19;;;-3.72;100.00
28935;BME280;16044;52.726;-2.108;2022-12-10T00:04:00;99880.03;;;-3.74;100.00
28935;BME280;16044;52.726;-2.108;2022-12-10T00:06:29;99874.72;;;-3.74;100.00
28935;BME280;16044;52.726;-2.108;2022-12-10T00:08:59;99876.63;;;-3.76;100.00
28935;BME280;16044;52.726;-2.108;2022-12-10T00:11:27;99878.53;;;-3.78;100.00
28935;BME280;16044;52.726;-2.108;2022-12-10T00:13:54;99887.41;;;-3.79;100.00
28935;BME280;16044;52.726;-2.108;2022-12-10T00:16:23;99875.31;;;-3.83;100.00
28935;BME280;16044;52.726;-2.108;2022-12-10T00:18:52;99882.53;;;-3.85;100.00
28935;BME280;16044;52.726;-2.108;2022-12-10T00:21:22;99886.97;;;-3.85;99.88
28935;BME280;16044;52.726;-2.108;2022-12-10T00:23:52;99877.41;;;-3.88;99.81
28935;BME280;16044;52.726;-2.108;2022-12-10T00:26:30;99876.75;;;-3.92;99.83
28935;BME280;16044;52.726;-2.108;2022-12-10T00:29:00;99881.97;;;-3.90;99.95
28935;BME280;16044;52.726;-2.108;2022-12-10T00:31:32;99877.63;;;-3.91;99.92
28935;BME280;16044;52.726;-2.108;2022-12-10T00:34:02;99882.94;;;-3.91;100.00
28935;BME280;16044;52.726;-2.108;2022-12-10T00:36:33;99885.56;;;-3.91;100.00
28935;BME280;16044;52.726;-2.108;2022-12-10T00:39:03;99894.47;;;-3.92;100.00
28935;BME280;16044;52.726;-2.108;2022-12-10T00:41:30;99883.88;;;-3.92;100.00
28935;BME280;16044;52.726;-2.108;2022-12-10T00:43:57;99890.97;;;-3.93;100.00
28935;BME280;16044;52.726;-2.108;2022-12-10T00:46:25;99887.56;;;-3.95;100.00
28935;BME280;16044;52.726;-2.108;2022-12-10T00:48:52;99889.34;;;-3.95;100.00
28935;BME280;16044;52.726;-2.108;2022-12-10T00:51:21;99888.59;;;-3.97;100.00
28935;BME280;16044;52.726;-2.108;2022-12-10T00:53:51;99895.78;;;-3.99;99.91
28935;BME280;16044;52.726;-2.108;2022-12-10T00:56:22;99899.50;;;-4.02;100.00
28935;BME280;16044;52.726;-2.108;2022-12-10T00:58:53;99905.72;;;-4.03;100.00
28935;BME280;16044;52.726;-2.108;2022-12-10T01:01:22;99899.78;;;-4.06;99.93
28935;BME280;16044;52.726;-2.108;2022-12-10T01:03:52;99904.31;;;-4.08;99.99
28935;BME280;16044;52.726;-2.108;2022-12-10T01:06:28;99898.38;;;-4.12;100.00
28935;BME280;16044;52.726;-2.108;2022-12-10T01:09:06;99902.91;;;-4.14;100.00
28935;BME280;16044;52.726;-2.108;2022-12-10T01:11:36;99901.41;;;-4.18;100.00
28935;BME280;16044;52.726;-2.108;2022-12-10T01:14:06;99902.47;;;-4.21;100.00
28935;BME280;16044;52.726;-2.108;2022-12-10T01:16:34;99896.34;;;-4.21;100.00
28935;BME280;16044;52.726;-2.108;2022-12-10T01:19:02;99893.88;;;-4.24;100.00
28935;BME280;16044;52.726;-2.108;2022-12-10T01:21:29;99902.66;;;-4.24;100.00
28935;BME280;16044;52.726;-2.108;2022-12-10T01:23:57;99900.97;;;-4.25;99.91
28935;BME280;16044;52.726;-2.108;2022-12-10T01:26:27;99901.16;;;-4.28;99.96
28935;BME280;16044;52.726;-2.108;2022-12-10T01:28:56;99905.59;;;-4.28;100.00
28935;BME280;16044;52.726;-2.108;2022-12-10T01:31:26;99902.88;;;-4.27;100.00
28935;BME280;16044;52.726;-2.108;2022-12-10T01:33:58;99905.50;;;-4.27;100.00
28935;BME280;16044;52.726;-2.108;2022-12-10T01:36:33;99908.59;;;-4.20;100.00
28935;BME280;16044;52.726;-2.108;2022-12-10T01:39:06;99909.25;;;-4.17;100.00
28935;BME280;16044;52.726;-2.108;2022-12-10T01:41:41;99903.88;;;-4.15;100.00
28935;BME280;16044;52.726;-2.108;2022-12-10T01:46:41;99893.06;;;-4.12;100.00
28935;BME280;16044;52.726;-2.108;2022-12-10T01:49:12;99891.31;;;-4.12;100.00
28935;BME280;16044;52.726;-2.108;2022-12-10T01:51:43;99896.59;;;-4.12;100.00
28935;BME280;16044;52.726;-2.108;2022-12-10T01:54:15;99894.13;;;-4.15;100.00
28935;BME280;16044;52.726;-2.108;2022-12-10T01:56:54;99890.66;;;-4.15;100.00
28935;BME280;16044;52.726;-2.108;2022-12-10T01:59:25;99903.78;;;-4.14;100.00
28935;BME280;16044;52.726;-2.108;2022-12-10T02:13:37;99900.00;;;-4.24;100.00
28935;BME280;16044;52.726;-2.108;2022-12-10T02:16:18;99900.09;;;-4.25;100.00
28935;BME280;16044;52.726;-2.108;2022-12-10T02:18:56;99904.53;;;-4.26;100.00
28935;BME280;16044;52.726;-2.108;2022-12-10T02:21:34;99895.78;;;-4.26;100.00
28935;BME280;16044;52.726;-2.108;2022-12-10T02:24:07;99893.97;;;-4.26;100.00
28935;BME280;16044;52.726;-2.108;2022-12-10T02:29:23;99896.03;;;-4.31;100.00
28935;BME280;16044;52.726;-2.108;2022-12-10T02:32:19;99903.22;;;-4.33;100.00
28935;BME280;16044;52.726;-2.108;2022-12-10T02:34:56;99899.75;;;-4.34;100.00
28935;BME280;16044;52.726;-2.108;2022-12-10T02:37:34;99898.16;;;-4.36;100.00
28935;BME280;16044;52.726;-2.108;2022-12-10T02:40:08;99894.75;;;-4.38;100.00
28935;BME280;16044;52.726;-2.108;2022-12-10T02:42:42;99901.94;;;-4.40;100.00
28935;BME280;16044;52.726;-2.108;2022-12-10T02:45:11;99888.78;;;-4.42;100.00
28935;BME280;16044;52.726;-2.108;2022-12-10T02:47:39;99897.75;;;-4.44;100.00
28935;BME280;16044;52.726;-2.108;2022-12-10T02:50:07;99905.69;;;-4.44;100.00
28935;BME280;16044;52.726;-2.108;2022-12-10T02:52:37;99910.31;;;-4.48;100.00
28935;BME280;16044;52.726;-2.108;2022-12-10T02:55:04;99899.09;;;-4.52;100.00
28935;BME280;16044;52.726;-2.108;2022-12-10T02:58:04;99905.41;;;-4.54;100.00
28935;BME280;16044;52.726;-2.108;2022-12-10T03:00:39;99902.84;;;-4.56;100.00
28935;BME280;16044;52.726;-2.108;2022-12-10T03:06:18;99897.97;;;-4.62;100.00
28935;BME280;16044;52.726;-2.108;2022-12-10T03:09:12;99892.88;;;-4.65;100.00
28935;BME280;16044;52.726;-2.108;2022-12-10T03:11:46;99890.31;;;-4.66;99.98
28935;BME280;16044;52.726;-2.108;2022-12-10T03:14:23;99893.97;;;-4.69;99.85
28935;BME280;16044;52.726;-2.108;2022-12-10T03:16:56;99884.28;;;-4.68;99.85
28935;BME280;16044;52.726;-2.108;2022-12-10T03:19:33;99893.97;;;-4.69;99.97
28935;BME280;16044;52.726;-2.108;2022-12-10T03:22:05;99891.34;;;-4.69;100.00
28935;BME280;16044;52.726;-2.108;2022-12-10T03:24:35;99889.56;;;-4.68;100.00
28935;BME280;16044;52.726;-2.108;2022-12-10T03:27:04;99886.25;;;-4.72;100.00
28935;BME280;16044;52.726;-2.108;2022-12-10T03:29:39;99880.22;;;-4.74;99.68
28935;BME280;16044;52.726;-2.108;2022-12-10T03:32:10;99887.41;;;-4.76;99.84
28935;BME280;16044;52.726;-2.108;2022-12-10T03:34:37;99883.03;;;-4.77;99.96
28935;BME280;16044;52.726;-2.108;2022-12-10T03:37:05;99884.94;;;-4.79;99.96
28935;BME280;16044;52.726;-2.108;2022-12-10T03:39:33;99876.25;;;-4.81;99.86
28935;BME280;16044;52.726;-2.108;2022-12-10T03:42:01;99874.53;;;-4.82;99.93
28935;BME280;16044;52.726;-2.108;2022-12-10T03:44:33;99875.41;;;-4.82;99.93
28935;BME280;16044;52.726;-2.108;2022-12-10T03:47:02;99867.56;;;-4.83;99.97
28935;BME280;16044;52.726;-2.108;2022-12-10T03:49:31;99871.13;;;-4.84;100.00
28935;BME280;16044;52.726;-2.108;2022-12-10T03:51:58;99869.44;;;-4.85;100.00
28935;BME280;16044;52.726;-2.108;2022-12-10T03:54:25;99865.84;;;-4.84;99.97
28935;BME280;16044;52.726;-2.108;2022-12-10T03:56:52;99870.38;;;-4.86;100.00
28935;BME280;16044;52.726;-2.108;2022-12-10T03:59:19;99867.72;;;-4.86;100.00
28935;BME280;16044;52.726;-2.108;2022-12-10T04:01:46;99865.09;;;-4.86;100.00
28935;BME280;16044;52.726;-2.108;2022-12-10T04:04:13;99865.31;;;-4.90;99.80
28935;BME280;16044;52.726;-2.108;2022-12-10T04:06:41;99862.66;;;-4.90;100.00
28935;BME280;16044;52.726;-2.108;2022-12-10T04:09:13;99873.41;;;-4.93;99.92
28935;BME280;16044;52.726;-2.108;2022-12-10T04:11:41;99869.03;;;-4.94;99.94
28935;BME280;16044;52.726;-2.108;2022-12-10T04:14:11;99869.16;;;-4.95;99.75
28935;BME280;16044;52.726;-2.108;2022-12-10T04:16:58;99855.28;;;-4.99;100.00
28935;BME280;16044;52.726;-2.108;2022-12-10T04:19:25;99862.47;;;-5.01;100.00
28935;BME280;16044;52.726;-2.108;2022-12-10T04:21:52;99858.94;;;-5.01;99.72
28935;BME280;16044;52.726;-2.108;2022-12-10T04:24:38;99860.91;;;-5.05;99.50
28935;BME280;16044;52.726;-2.108;2022-12-10T04:29:59;99856.00;;;-5.11;99.73
28935;BME280;16044;52.726;-2.108;2022-12-10T04:32:28;99860.53;;;-5.13;99.58
28935;BME280;16044;52.726;-2.108;2022-12-10T04:34:56;99864.13;;;-5.14;99.44
28935;BME280;16044;52.726;-2.108;2022-12-10T04:37:26;99870.34;;;-5.15;99.39
28935;BME280;16044;52.726;-2.108;2022-12-10T04:39:53;99865.16;;;-5.17;99.58
28935;BME280;16044;52.726;-2.108;2022-12-10T04:42:21;99871.28;;;-5.16;99.35
28935;BME280;16044;52.726;-2.108;2022-12-10T04:44:48;99871.28;;;-5.16;99.26
28935;BME280;16044;52.726;-2.108;2022-12-10T04:47:16;99866.00;;;-5.16;99.19
28935;BME280;16044;52.726;-2.108;2022-12-10T04:49:43;99868.84;;;-5.19;99.61
28935;BME280;16044;52.726;-2.108;2022-12-10T04:52:14;99869.84;;;-5.22;99.57
28935;BME280;16044;52.726;-2.108;2022-12-10T04:54:42;99868.94;;;-5.21;99.77
28935;BME280;16044;52.726;-2.108;2022-12-10T04:57:10;99865.31;;;-5.20;99.66
28935;BME280;16044;52.726;-2.108;2022-12-10T04:59:37;99864.56;;;-5.22;99.54
28935;BME280;16044;52.726;-2.108;2022-12-10T05:02:05;99876.09;;;-5.23;99.62
28935;BME280;16044;52.726;-2.108;2022-12-10T05:04:32;99866.38;;;-5.22;99.63
28935;BME280;16044;52.726;-2.108;2022-12-10T05:06:59;99875.25;;;-5.23;99.50
28935;BME280;16044;52.726;-2.108;2022-12-10T05:09:26;99876.19;;;-5.24;99.14
28935;BME280;16044;52.726;-2.108;2022-12-10T05:11:53;99869.22;;;-5.25;99.57
28935;BME280;16044;52.726;-2.108;2022-12-10T05:14:20;99876.28;;;-5.26;99.65
28935;BME280;16044;52.726;-2.108;2022-12-10T05:16:49;99879.00;;;-5.28;99.45
28935;BME280;16044;52.726;-2.108;2022-12-10T05:19:17;99873.06;;;-5.31;100.00
28935;BME280;16044;52.726;-2.108;2022-12-10T05:21:46;99874.09;;;-5.34;99.83
28935;BME280;16044;52.726;-2.108;2022-12-10T05:24:31;99876.72;;;-5.34;99.64
28935;BME280;16044;52.726;-2.108;2022-12-10T05:26:59;99879.56;;;-5.37;99.75
28935;BME280;16044;52.726;-2.108;2022-12-10T05:29:25;99876.94;;;-5.37;99.49
28935;BME280;16044;52.726;-2.108;2022-12-10T05:31:52;99882.38;;;-5.40;99.84
28935;BME280;16044;52.726;-2.108;2022-12-10T05:34:19;99877.09;;;-5.40;99.61
28935;BME280;16044;52.726;-2.108;2022-12-10T05:36:46;99872.66;;;-5.39;99.05
28935;BME280;16044;52.726;-2.108;2022-12-10T05:39:13;99871.06;;;-5.42;99.53
28935;BME280;16044;52.726;-2.108;2022-12-10T05:41:41;99873.78;;;-5.43;99.52
28935;BME280;16044;52.726;-2.108;2022-12-10T05:44:10;99862.38;;;-5.44;99.47
28935;BME280;16044;52.726;-2.108;2022-12-10T05:46:38;99860.66;;;-5.45;99.60
28935;BME280;16044;52.726;-2.108;2022-12-10T05:49:06;99867.75;;;-5.45;99.42
28935;BME280;16044;52.726;-2.108;2022-12-10T05:51:35;99863.38;;;-5.46;99.28
28935;BME280;16044;52.726;-2.108;2022-12-10T05:54:04;99860.88;;;-5.48;99.21
28935;BME280;16044;52.726;-2.108;2022-12-10T05:56:32;99858.31;;;-5.50;99.41
28935;BME280;16044;52.726;-2.108;2022-12-10T05:59:01;99862.72;;;-5.50;99.49
28935;BME280;16044;52.726;-2.108;2022-12-10T06:01:31;99860.19;;;-5.52;99.49
28935;BME280;16044;52.726;-2.108;2022-12-10T06:04:01;99856.69;;;-5.52;99.51
28935;BME280;16044;52.726;-2.108;2022-12-10T06:06:32;99858.47;;;-5.53;99.58
28935;BME280;16044;52.726;-2.108;2022-12-10T06:09:01;99855.00;;;-5.53;99.41
28935;BME280;16044;52.726;-2.108;2022-12-10T06:11:29;99851.50;;;-5.54;99.69
28935;BME280;16044;52.726;-2.108;2022-12-10T06:13:57;99849.78;;;-5.55;99.59
28935;BME280;16044;52.726;-2.108;2022-12-10T06:16:26;99839.06;;;-5.52;99.82
28935;BME280;16044;52.726;-2.108;2022-12-10T06:18:55;99840.66;;;-5.49;99.94
28935;BME280;16044;52.726;-2.108;2022-12-10T06:21:23;99849.44;;;-5.49;100.00
28935;BME280;16044;52.726;-2.108;2022-12-10T06:23:51;99850.31;;;-5.48;100.00
28935;BME280;16044;52.726;-2.108;2022-12-10T06:26:21;99848.59;;;-5.49;100.00
28935;BME280;16044;52.726;-2.108;2022-12-10T06:28:50;99850.31;;;-5.48;100.00
28935;BME280;16044;52.726;-2.108;2022-12-10T06:31:18;99847.75;;;-5.50;100.00
28935;BME280;16044;52.726;-2.108;2022-12-10T06:33:46;99857.25;;;-5.47;100.00
28935;BME280;16044;52.726;-2.108;2022-12-10T06:36:15;99850.09;;;-5.45;100.00
28935;BME280;16044;52.726;-2.108;2022-12-10T06:38:43;99858.78;;;-5.43;100.00
28935;BME280;16044;52.726;-2.108;2022-12-10T06:41:12;99856.91;;;-5.41;100.00
28935;BME280;16044;52.726;-2.108;2022-12-10T06:43:40;99846.16;;;-5.38;100.00
28935;BME280;16044;52.726;-2.108;2022-12-10T06:46:13;99836.53;;;-5.39;100.00
28935;BME280;16044;52.726;-2.108;2022-12-10T06:48:41;99856.56;;;-5.35;100.00
28935;BME280;16044;52.726;-2.108;2022-12-10T06:51:10;99855.59;;;-5.34;100.00
28935;BME280;16044;52.726;-2.108;2022-12-10T06:53:41;99850.13;;;-5.31;100.00
28935;BME280;16044;52.726;-2.108;2022-12-10T06:56:12;99859.75;;;-5.30;100.00
28935;BME280;16044;52.726;-2.108;2022-12-10T06:58:42;99856.00;;;-5.25;100.00
28935;BME280;16044;52.726;-2.108;2022-12-10T07:01:13;99852.41;;;-5.24;100.00
28935;BME280;16044;52.726;-2.108;2022-12-10T07:03:40;99850.53;;;-5.22;100.00
28935;BME280;16044;52.726;-2.108;2022-12-10T07:06:09;99848.84;;;-5.23;100.00
28935;BME280;16044;52.726;-2.108;2022-12-10T07:08:37;99859.41;;;-5.23;100.00
28935;BME280;16044;52.726;-2.108;2022-12-10T07:11:09;99856.84;;;-5.25;100.00
28935;BME280;16044;52.726;-2.108;2022-12-10T07:13:38;99855.13;;;-5.26;100.00
28935;BME280;16044;52.726;-2.108;2022-12-10T07:16:34;99849.19;;;-5.30;100.00
28935;BME280;16044;52.726;-2.108;2022-12-10T07:19:01;99854.38;;;-5.28;100.00
28935;BME280;16044;52.726;-2.108;2022-12-10T07:21:31;99855.34;;;-5.29;100.00
28935;BME280;16044;52.726;-2.108;2022-12-10T07:24:05;99860.63;;;-5.29;100.00
28935;BME280;16044;52.726;-2.108;2022-12-10T07:26:36;99863.34;;;-5.31;100.00
28935;BME280;16044;52.726;-2.108;2022-12-10T07:29:05;99864.38;;;-5.33;100.00
28935;BME280;16044;52.726;-2.108;2022-12-10T07:31:33;99866.38;;;-5.37;100.00
28935;BME280;16044;52.726;-2.108;2022-12-10T07:34:02;99869.84;;;-5.36;100.00
28935;BME280;16044;52.726;-2.108;2022-12-10T07:36:29;99856.91;;;-5.41;99.89
28935;BME280;16044;52.726;-2.108;2022-12-10T07:38:56;99866.69;;;-5.43;100.00
28935;BME280;16044;52.726;-2.108;2022-12-10T07:41:23;99875.59;;;-5.44;99.95
28935;BME280;16044;52.726;-2.108;2022-12-10T07:43:51;99867.75;;;-5.45;100.00
28935;BME280;16044;52.726;-2.108;2022-12-10T07:46:25;99860.75;;;-5.46;99.59
28935;BME280;16044;52.726;-2.108;2022-12-10T07:48:53;99863.66;;;-5.51;100.00
28935;BME280;16044;52.726;-2.108;2022-12-10T07:51:21;99871.44;;;-5.48;99.87
28935;BME280;16044;52.726;-2.108;2022-12-10T07:53:51;99873.28;;;-5.50;99.94
28935;BME280;16044;52.726;-2.108;2022-12-10T07:56:20;99873.38;;;-5.52;99.87
28935;BME280;16044;52.726;-2.108;2022-12-10T07:58:48;99870.75;;;-5.52;99.82
28935;BME280;16044;52.726;-2.108;2022-12-10T08:01:18;99878.75;;;-5.53;99.88
28935;BME280;16044;52.726;-2.108;2022-12-10T08:03:55;99873.47;;;-5.53;99.73
28935;BME280;16044;52.726;-2.108;2022-12-10T08:06:24;99871.69;;;-5.53;99.81
28935;BME280;16044;52.726;-2.108;2022-12-10T08:08:52;99872.53;;;-5.52;99.82
28935;BME280;16044;52.726;-2.108;2022-12-10T08:11:20;99872.34;;;-5.49;99.82
28935;BME280;16044;52.726;-2.108;2022-12-10T08:13:49;99875.75;;;-5.47;100.00
28935;BME280;16044;52.726;-2.108;2022-12-10T08:16:24;99873.09;;;-5.47;100.00
28935;BME280;16044;52.726;-2.108;2022-12-10T08:18:54;99874.81;;;-5.46;100.00
28935;BME280;16044;52.726;-2.108;2022-12-10T08:21:25;99877.47;;;-5.46;100.00
28935;BME280;16044;52.726;-2.108;2022-12-10T08:23:54;99879.16;;;-5.45;100.00
28935;BME280;16044;52.726;-2.108;2022-12-10T08:26:24;99877.34;;;-5.44;100.00
28935;BME280;16044;52.726;-2.108;2022-12-10T08:28:53;99886.06;;;-5.42;100.00
28935;BME280;16044;52.726;-2.108;2022-12-10T08:31:22;99879.81;;;-5.41;100.00
28935;BME280;16044;52.726;-2.108;2022-12-10T08:33:51;99883.13;;;-5.38;100.00
28935;BME280;16044;52.726;-2.108;2022-12-10T08:36:18;99875.97;;;-5.36;100.00
28935;BME280;16044;52.726;-2.108;2022-12-10T08:38:46;99883.53;;;-5.30;100.00
28935;BME280;16044;52.726;-2.108;2022-12-10T08:41:20;99883.28;;;-5.25;100.00
28935;BME280;16044;52.726;-2.108;2022-12-10T08:43:48;99888.69;;;-5.12;100.00
28935;BME280;16044;52.726;-2.108;2022-12-10T08:46:18;99874.13;;;-5.05;100.00
28935;BME280;16044;52.726;-2.108;2022-12-10T08:48:45;99886.72;;;-4.94;100.00
28935;BME280;16044;52.726;-2.108;2022-12-10T08:51:15;99879.06;;;-4.84;100.00
28935;BME280;16044;52.726;-2.108;2022-12-10T08:53:43;99877.75;;;-4.77;100.00
28935;BME280;16044;52.726;-2.108;2022-12-10T08:56:10;99879.91;;;-4.70;100.00
28935;BME280;16044;52.726;-2.108;2022-12-10T08:58:38;99876.72;;;-4.60;100.00
28935;BME280;16044;52.726;-2.108;2022-12-10T09:01:10;99874.56;;;-4.54;100.00
28935;BME280;16044;52.726;-2.108;2022-12-10T09:03:38;99884.75;;;-4.47;100.00
28935;BME280;16044;52.726;-2.108;2022-12-10T09:06:08;99879.06;;;-4.41;100.00
28935;BME280;16044;52.726;-2.108;2022-12-10T09:08:37;99878.47;;;-4.32;100.00
28935;BME280;16044;52.726;-2.108;2022-12-10T09:11:09;99887.81;;;-4.26;100.00
28935;BME280;16044;52.726;-2.108;2022-12-10T09:13:41;99881.47;;;-4.24;100.00
28935;BME280;16044;52.726;-2.108;2022-12-10T09:16:09;99886.59;;;-4.21;100.00
28935;BME280;16044;52.726;-2.108;2022-12-10T09:18:37;99884.69;;;-4.19;100.00
28935;BME280;16044;52.726;-2.108;2022-12-10T09:21:06;99892.53;;;-4.17;100.00
28935;BME280;16044;52.726;-2.108;2022-12-10T09:23:34;99892.44;;;-4.16;100.00
28935;BME280;16044;52.726;-2.108;2022-12-10T09:26:05;99892.31;;;-4.14;100.00
28935;BME280;16044;52.726;-2.108;2022-12-10T09:28:33;99890.44;;;-4.12;100.00
28935;BME280;16044;52.726;-2.108;2022-12-10T09:31:01;99892.81;;;-4.07;100.00
28935;BME280;16044;52.726;-2.108;2022-12-10T09:33:29;99891.75;;;-4.05;100.00
28935;BME280;16044;52.726;-2.108;2022-12-10T09:35:56;99888.91;;;-4.02;100.00
28935;BME280;16044;52.726;-2.108;2022-12-10T09:38:25;99884.19;;;-3.97;100.00
28935;BME280;16044;52.726;-2.108;2022-12-10T09:41:03;99889.91;;;-3.90;100.00
28935;BME280;16044;52.726;-2.108;2022-12-10T09:43:55;99889.63;;;-3.85;100.00
28935;BME280;16044;52.726;-2.108;2022-12-10T09:49:24;99879.63;;;-3.67;100.00
28935;BME280;16044;52.726;-2.108;2022-12-10T09:52:04;99895.47;;;-3.53;100.00
28935;BME280;16044;52.726;-2.108;2022-12-10T09:54:49;99899.09;;;-3.41;100.00
28935;BME280;16044;52.726;-2.108;2022-12-10T09:57:24;99898.16;;;-3.27;100.00
28935;BME280;16044;52.726;-2.108;2022-12-10T09:59:55;99905.31;;;-3.15;100.00
28935;BME280;16044;52.726;-2.108;2022-12-10T10:02:29;99898.41;;;-3.05;100.00
28935;BME280;16044;52.726;-2.108;2022-12-10T10:07:36;99907.56;;;-2.83;100.00
28935;BME280;16044;52.726;-2.108;2022-12-10T10:10:33;99908.81;;;-2.76;100.00
28935;BME280;16044;52.726;-2.108;2022-12-10T10:15:43;99909.56;;;-2.61;100.00
28935;BME280;16044;52.726;-2.108;2022-12-10T10:21:10;99910.53;;;-2.49;100.00
28935;BME280;16044;52.726;-2.108;2022-12-10T10:23:42;99911.78;;;-2.42;100.00
28935;BME280;16044;52.726;-2.108;2022-12-10T10:26:11;99912.31;;;-2.37;100.00
28935;BME280;16044;52.726;-2.108;2022-12-10T10:28:40;99902.22;;;-2.32;100.00
28935;BME280;16044;52.726;-2.108;2022-12-10T10:31:29;99901.78;;;-2.26;100.00
28935;BME280;16044;52.726;-2.108;2022-12-10T10:34:06;99900.38;;;-2.19;100.00
28935;BME280;16044;52.726;-2.108;2022-12-10T10:36:45;99903.44;;;-2.12;100.00
28935;BME280;16044;52.726;-2.108;2022-12-10T10:41:42;99895.53;;;-2.01;100.00
28935;BME280;16044;52.726;-2.108;2022-12-10T10:44:15;99897.88;;;-1.96;100.00
28935;BME280;16044;52.726;-2.108;2022-12-10T10:46:45;99900.19;;;-1.91;100.00
28935;BME280;16044;52.726;-2.108;2022-12-10T10:49:32;99890.19;;;-1.88;100.00
28935;BME280;16044;52.726;-2.108;2022-12-10T10:52:05;99888.38;;;-1.87;100.00
28935;BME280;16044;52.726;-2.108;2022-12-10T10:54:40;99882.03;;;-1.85;100.00
28935;BME280;16044;52.726;-2.108;2022-12-10T11:02:51;99884.44;;;-1.82;100.00
28935;BME280;16044;52.726;-2.108;2022-12-10T11:05:29;99893.28;;;-1.81;100.00
28935;BME280;16044;52.726;-2.108;2022-12-10T11:08:12;99886.97;;;-1.80;100.00
28935;BME280;16044;52.726;-2.108;2022-12-10T11:10:50;99893.91;;;-1.78;100.00
28935;BME280;16044;52.726;-2.108;2022-12-10T11:13:23;99891.97;;;-1.75;100.00
28935;BME280;16044;52.726;-2.108;2022-12-10T11:16:01;99887.16;;;-1.70;100.00
28935;BME280;16044;52.726;-2.108;2022-12-10T11:18:40;99891.31;;;-1.66;100.00
28935;BME280;16044;52.726;-2.108;2022-12-10T11:23:44;99886.03;;;-1.55;100.00
28935;BME280;16044;52.726;-2.108;2022-12-10T11:43:47;99870.00;;;-1.42;100.00
28935;BME280;16044;52.726;-2.108;2022-12-10T11:49:12;99869.16;;;-1.43;100.00
28935;BME280;16044;52.726;-2.108;2022-12-10T11:52:36;99869.16;;;-1.43;100.00
28935;BME280;16044;52.726;-2.108;2022-12-10T12:03:41;99876.97;;;-1.28;100.00
28935;BME280;16044;52.726;-2.108;2022-12-10T12:11:59;99855.13;;;-1.09;100.00
28935;BME280;16044;52.726;-2.108;2022-12-10T12:14:49;99857.19;;;-1.02;100.00
28935;BME280;16044;52.726;-2.108;2022-12-10T12:17:41;99853.09;;;-0.94;100.00
28935;BME280;16044;52.726;-2.108;2022-12-10T12:20:19;99854.28;;;-0.87;100.00
28935;BME280;16044;52.726;-2.108;2022-12-10T12:22:55;99857.47;;;-0.82;100.00
28935;BME280;16044;52.726;-2.108;2022-12-10T12:25:46;99858.78;;;-0.76;100.00
28935;BME280;16044;52.726;-2.108;2022-12-10T12:28:27;99855.75;;;-0.72;100.00
28935;BME280;16044;52.726;-2.108;2022-12-10T12:31:08;99860.00;;;-0.69;100.00
28935;BME280;16044;52.726;-2.108;2022-12-10T12:33:45;99854.31;;;-0.65;100.00
28935;BME280;16044;52.726;-2.108;2022-12-10T12:36:21;99850.69;;;-0.64;100.00
28935;BME280;16044;52.726;-2.108;2022-12-10T12:41:59;99858.91;;;-0.55;100.00
28935;BME280;16044;52.726;-2.108;2022-12-10T12:50:50;99849.25;;;-0.45;100.00
28935;BME280;16044;52.726;-2.108;2022-12-10T12:53:23;99849.00;;;-0.42;100.00
28935;BME280;16044;52.726;-2.108;2022-12-10T13:04:37;99838.59;;;-0.45;100.00
28935;BME280;16044;52.726;-2.108;2022-12-10T13:09:52;99845.88;;;-0.47;100.00
28935;BME280;16044;52.726;-2.108;2022-12-10T13:15:43;99839.06;;;-0.40;100.00
28935;BME280;16044;52.726;-2.108;2022-12-10T13:24:09;99844.47;;;-0.19;100.00
28935;BME280;16044;52.726;-2.108;2022-12-10T13:26:41;99842.91;;;-0.10;100.00
28935;BME280;16044;52.726;-2.108;2022-12-10T13:32:24;99836.59;;;0.02;100.00
28935;BME280;16044;52.726;-2.108;2022-12-10T13:37:53;99847.06;;;0.15;100.00
28935;BME280;16044;52.726;-2.108;2022-12-10T13:49:04;99844.03;;;0.19;100.00
28935;BME280;16044;52.726;-2.108;2022-12-10T13:57:24;99838.72;;;0.19;100.00
28935;BME280;16044;52.726;-2.108;2022-12-10T14:00:20;99835.22;;;0.19;100.00
28935;BME280;16044;52.726;-2.108;2022-12-10T14:03:51;99843.06;;;0.21;100.00
28935;BME280;16044;52.726;-2.108;2022-12-10T14:08:57;99856.03;;;0.25;100.00
28935;BME280;16044;52.726;-2.108;2022-12-10T14:11:30;99846.91;;;0.28;100.00
28935;BME280;16044;52.726;-2.108;2022-12-10T14:14:06;99848.50;;;0.30;100.00
28935;BME280;16044;52.726;-2.108;2022-12-10T14:16:37;99848.34;;;0.32;100.00
28935;BME280;16044;52.726;-2.108;2022-12-10T14:19:13;99849.22;;;0.32;100.00
28935;BME280;16044;52.726;-2.108;2022-12-10T14:21:44;99852.72;;;0.33;100.00
28935;BME280;16044;52.726;-2.108;2022-12-10T14:24:34;99854.28;;;0.35;100.00
28935;BME280;16044;52.726;-2.108;2022-12-10T14:27:23;99854.16;;;0.37;100.00
28935;BME280;16044;52.726;-2.108;2022-12-10T14:29:58;99856.09;;;0.35;100.00
28935;BME280;16044;52.726;-2.108;2022-12-10T14:32:35;99861.56;;;0.33;100.00
28935;BME280;16044;52.726;-2.108;2022-12-10T14:35:06;99860.72;;;0.33;100.00
28935;BME280;16044;52.726;-2.108;2022-12-10T14:37:42;99862.66;;;0.31;100.00
28935;BME280;16044;52.726;-2.108;2022-12-10T14:43:05;99851.91;;;0.21;100.00
28935;BME280;16044;52.726;-2.108;2022-12-10T14:45:50;99865.47;;;0.18;100.00
28935;BME280;16044;52.726;-2.108;2022-12-10T14:48:20;99865.72;;;0.15;100.00
28935;BME280;16044;52.726;-2.108;2022-12-10T14:50:47;99869.50;;;0.12;100.00
28935;BME280;16044;52.726;-2.108;2022-12-10T14:53:17;99867.94;;;0.10;100.00
28935;BME280;16044;52.726;-2.108;2022-12-10T14:56:02;99865.50;;;0.07;100.00
28935;BME280;16044;52.726;-2.108;2022-12-10T14:58:39;99864.06;;;0.03;100.00
28935;BME280;16044;52.726;-2.108;2022-12-10T15:01:28;99858.88;;;0.01;100.00
28935;BME280;16044;52.726;-2.108;2022-12-10T15:03:59;99858.97;;;-0.01;100.00
28935;BME280;16044;52.726;-2.108;2022-12-10T15:06:28;99860.09;;;-0.03;100.00
28935;BME280;16044;52.726;-2.108;2022-12-10T15:09:00;99861.19;;;-0.06;100.00
28935;BME280;16044;52.726;-2.108;2022-12-10T15:11:28;99860.59;;;-0.09;100.00
28935;BME280;16044;52.726;-2.108;2022-12-10T15:13:59;99862.53;;;-0.11;100.00
28935;BME280;16044;52.726;-2.108;2022-12-10T15:19:07;99857.44;;;-0.14;100.00
28935;BME280;16044;52.726;-2.108;2022-12-10T15:21:48;99855.72;;;-0.15;100.00
28935;BME280;16044;52.726;-2.108;2022-12-10T15:24:24;99865.56;;;-0.16;100.00
28935;BME280;16044;52.726;-2.108;2022-12-10T15:27:21;99862.41;;;-0.21;100.00